SXN39 ZZZZ-EGKB
Flight info
| Callsign | SXN39 |
|---|---|
| Flight time | N/A |
| Altitude | 2000 |
| Route | DORKING DCT |
| Aircraft | A139/L-VGD/C |
Departure
| Time | N/A |
|---|---|
| Airport | ZZZZ |
Arrival
| Time | 2026-04-30 21:11 |
|---|---|
| Airport | London Biggin Hill Airport (EGKB) |
| Time | Latitude | Longitude | Altitude | Speed | Heading |
|---|---|---|---|---|---|
| 2026-04-30 20:39 | 50.79460 | -0.65575 | 12 ft | 0 kts | 96° |
| 2026-04-30 20:49 | 50.79461 | -0.65576 | 16 ft | 2 kts | 97° |
| 2026-04-30 20:49 | 50.79462 | -0.65585 | 55 ft | 7 kts | 89° |
| 2026-04-30 20:50 | 50.79505 | -0.65292 | 459 ft | 66 kts | 67° |
| 2026-04-30 20:50 | 50.79889 | -0.64572 | 716 ft | 94 kts | 55° |
| 2026-04-30 20:50 | 50.80303 | -0.63741 | 955 ft | 100 kts | 60° |
| 2026-04-30 20:50 | 50.80834 | -0.62953 | 1187 ft | 112 kts | 45° |
| 2026-04-30 20:51 | 50.81480 | -0.62274 | 1423 ft | 113 kts | 45° |
| 2026-04-30 20:51 | 50.82850 | -0.60874 | 1699 ft | 118 kts | 44° |
| 2026-04-30 20:51 | 50.83539 | -0.60173 | 1816 ft | 118 kts | 44° |
| 2026-04-30 20:52 | 50.84283 | -0.59569 | 1908 ft | 131 kts | 26° |
| 2026-04-30 20:52 | 50.85213 | -0.59326 | 1963 ft | 140 kts | 19° |
| 2026-04-30 20:52 | 50.87209 | -0.58877 | 1993 ft | 150 kts | 16° |
| 2026-04-30 20:53 | 50.88249 | -0.58646 | 1976 ft | 151 kts | 17° |
| 2026-04-30 20:53 | 50.89304 | -0.58411 | 1989 ft | 151 kts | 17° |
| 2026-04-30 20:53 | 50.90333 | -0.58179 | 1990 ft | 151 kts | 16° |
| 2026-04-30 20:54 | 50.92433 | -0.57707 | 1981 ft | 151 kts | 17° |
| 2026-04-30 20:54 | 50.92948 | -0.57590 | 1977 ft | 151 kts | 17° |
| 2026-04-30 20:54 | 50.93646 | -0.57429 | 1973 ft | 151 kts | 17° |
| 2026-04-30 20:55 | 50.95735 | -0.56946 | 1961 ft | 151 kts | 16° |
| 2026-04-30 20:55 | 50.96775 | -0.56705 | 1974 ft | 151 kts | 16° |
| 2026-04-30 20:55 | 50.97810 | -0.56464 | 1975 ft | 150 kts | 16° |
| 2026-04-30 20:56 | 50.99877 | -0.55988 | 1964 ft | 150 kts | 16° |
| 2026-04-30 20:56 | 51.00839 | -0.55475 | 1960 ft | 141 kts | 39° |
| 2026-04-30 20:56 | 51.02457 | -0.53816 | 1978 ft | 139 kts | 41° |
| 2026-04-30 20:57 | 51.03268 | -0.52968 | 1978 ft | 139 kts | 41° |
| 2026-04-30 20:57 | 51.04075 | -0.52119 | 1979 ft | 139 kts | 42° |
| 2026-04-30 20:57 | 51.04875 | -0.51276 | 1980 ft | 139 kts | 42° |
| 2026-04-30 20:58 | 51.06490 | -0.49565 | 1984 ft | 139 kts | 41° |
| 2026-04-30 20:58 | 51.07297 | -0.48709 | 1991 ft | 139 kts | 41° |
| 2026-04-30 20:58 | 51.08098 | -0.47856 | 2000 ft | 138 kts | 41° |
| 2026-04-30 20:58 | 51.08897 | -0.47008 | 1988 ft | 139 kts | 41° |
| 2026-04-30 20:59 | 51.10504 | -0.45302 | 1983 ft | 138 kts | 41° |
| 2026-04-30 20:59 | 51.11307 | -0.44447 | 1988 ft | 138 kts | 41° |
| 2026-04-30 21:00 | 51.12901 | -0.42747 | 1983 ft | 138 kts | 41° |
| 2026-04-30 21:00 | 51.14505 | -0.41040 | 1989 ft | 139 kts | 41° |
| 2026-04-30 21:01 | 51.15892 | -0.39016 | 2010 ft | 132 kts | 56° |
| 2026-04-30 21:01 | 51.16486 | -0.37916 | 2002 ft | 132 kts | 56° |
| 2026-04-30 21:01 | 51.17682 | -0.35679 | 2021 ft | 132 kts | 55° |
| 2026-04-30 21:02 | 51.18306 | -0.34589 | 2009 ft | 133 kts | 53° |
| 2026-04-30 21:02 | 51.18936 | -0.33514 | 2007 ft | 133 kts | 53° |
| 2026-04-30 21:02 | 51.19574 | -0.32422 | 1987 ft | 133 kts | 54° |
| 2026-04-30 21:02 | 51.20199 | -0.31351 | 1974 ft | 133 kts | 54° |
| 2026-04-30 21:03 | 51.20834 | -0.30261 | 1979 ft | 133 kts | 54° |
| 2026-04-30 21:03 | 51.21457 | -0.29189 | 1989 ft | 133 kts | 53° |
| 2026-04-30 21:03 | 51.22091 | -0.28103 | 1989 ft | 133 kts | 53° |
| 2026-04-30 21:03 | 51.22718 | -0.27024 | 2000 ft | 132 kts | 53° |
| 2026-04-30 21:04 | 51.23346 | -0.25945 | 1995 ft | 132 kts | 53° |
| 2026-04-30 21:04 | 51.23968 | -0.24876 | 2009 ft | 132 kts | 53° |
| 2026-04-30 21:04 | 51.25053 | -0.22538 | 1967 ft | 131 kts | 63° |
| 2026-04-30 21:05 | 51.25503 | -0.21267 | 1961 ft | 130 kts | 67° |
| 2026-04-30 21:05 | 51.25874 | -0.19958 | 1980 ft | 131 kts | 71° |
| 2026-04-30 21:05 | 51.26162 | -0.18584 | 2016 ft | 130 kts | 79° |
| 2026-04-30 21:05 | 51.26338 | -0.17152 | 2023 ft | 131 kts | 83° |
| 2026-04-30 21:06 | 51.26440 | -0.15713 | 2003 ft | 132 kts | 92° |
| 2026-04-30 21:06 | 51.26334 | -0.14273 | 2016 ft | 129 kts | 98° |
| 2026-04-30 21:06 | 51.26185 | -0.12872 | 2024 ft | 126 kts | 99° |
| 2026-04-30 21:06 | 51.26035 | -0.11518 | 2024 ft | 124 kts | 96° |
| 2026-04-30 21:07 | 51.26047 | -0.10135 | 1999 ft | 125 kts | 86° |
| 2026-04-30 21:07 | 51.26136 | -0.08763 | 2010 ft | 123 kts | 84° |
| 2026-04-30 21:07 | 51.26321 | -0.07422 | 2041 ft | 123 kts | 82° |
| 2026-04-30 21:07 | 51.26505 | -0.06086 | 2025 ft | 126 kts | 84° |
| 2026-04-30 21:08 | 51.26664 | -0.04695 | 1987 ft | 128 kts | 85° |
| 2026-04-30 21:08 | 51.26809 | -0.03305 | 1957 ft | 129 kts | 81° |
| 2026-04-30 21:08 | 51.27294 | -0.02069 | 1985 ft | 139 kts | 48° |
| 2026-04-30 21:08 | 51.28169 | -0.01308 | 1954 ft | 146 kts | 33° |
| 2026-04-30 21:09 | 51.29021 | -0.00598 | 1851 ft | 131 kts | 37° |
| 2026-04-30 21:09 | 51.29781 | 0.00044 | 1800 ft | 117 kts | 34° |
| 2026-04-30 21:09 | 51.30478 | 0.00565 | 1720 ft | 105 kts | 31° |
| 2026-04-30 21:09 | 51.31107 | 0.00992 | 1550 ft | 91 kts | 30° |
| 2026-04-30 21:10 | 51.31663 | 0.01375 | 1366 ft | 82 kts | 42° |
| 2026-04-30 21:10 | 51.31939 | 0.02090 | 1155 ft | 74 kts | 56° |
| 2026-04-30 21:10 | 51.32304 | 0.02633 | 928 ft | 73 kts | 26° |
| 2026-04-30 21:10 | 51.32738 | 0.02962 | 784 ft | 65 kts | 26° |
| 2026-04-30 21:11 | 51.33118 | 0.03266 | 693 ft | 54 kts | 25° |
| 2026-04-30 21:11 | 51.33340 | 0.03439 | 604 ft | 15 kts | 341° |
| 2026-04-30 21:11 | 51.33379 | 0.03352 | 567 ft | 5 kts | 279° |
| 2026-04-30 21:11 | 51.33381 | 0.03337 | 561 ft | 0 kts | 278° |
| 2026-04-30 21:12 | 51.33383 | 0.03282 | 561 ft | 7 kts | 271° |
| 2026-04-30 21:12 | 51.33368 | 0.03196 | 561 ft | 8 kts | 235° |
| 2026-04-30 21:12 | 51.33324 | 0.03148 | 561 ft | 7 kts | 230° |
| 2026-04-30 21:12 | 51.33292 | 0.03068 | 561 ft | 8 kts | 216° |
| 2026-04-30 21:13 | 51.33273 | 0.03053 | 561 ft | 0 kts | 204° |